createdAt,value
2023-01-25T00:02:11.695Z,0.89
2023-01-25T00:07:20.763Z,0.88
2023-01-25T00:12:28.128Z,0.87
2023-01-25T00:17:35.574Z,0.90
2023-01-25T00:22:43.772Z,0.91
2023-01-25T00:27:51.223Z,0.90
2023-01-25T00:33:03.786Z,0.89
2023-01-25T00:38:30.232Z,0.88
2023-01-25T00:43:37.301Z,0.91
2023-01-25T00:48:42.914Z,0.95
2023-01-25T00:53:50.011Z,0.98
2023-01-25T00:58:57.078Z,0.99
2023-01-25T01:04:05.749Z,1.01
2023-01-25T01:09:18.708Z,0.99
2023-01-25T01:19:35.760Z,1.04
2023-01-25T01:24:43.776Z,1.06
2023-01-25T01:29:51.990Z,1.09
2023-01-25T01:34:59.768Z,1.10
2023-01-25T01:40:08.457Z,1.10
2023-01-25T01:45:46.114Z,1.06
2023-01-25T01:50:59.025Z,1.04
2023-01-25T01:56:12.848Z,1.03
2023-01-25T02:01:20.688Z,0.99
2023-01-25T02:06:35.213Z,0.94
2023-01-25T02:11:42.851Z,0.90
2023-01-25T02:16:50.372Z,0.91
2023-01-25T02:22:00.967Z,0.91
2023-01-25T02:27:08.590Z,0.91
2023-01-25T02:32:16.473Z,0.87
2023-01-25T02:37:23.766Z,0.84
2023-01-25T02:42:35.979Z,0.84
2023-01-25T02:47:43.269Z,0.87
2023-01-25T02:52:50.487Z,0.89
2023-01-25T02:57:56.784Z,0.88
2023-01-25T03:03:05.315Z,0.86
2023-01-25T03:08:12.868Z,0.85
2023-01-25T03:13:20.431Z,0.85
2023-01-25T03:18:28.176Z,0.86
2023-01-25T03:23:35.638Z,0.88
2023-01-25T03:28:43.993Z,0.88
2023-01-25T03:33:51.297Z,0.87
2023-01-25T03:38:58.609Z,0.87
2023-01-25T03:44:04.138Z,0.89
2023-01-25T03:49:11.606Z,0.94
2023-01-25T03:54:18.900Z,0.97
2023-01-25T03:59:26.048Z,0.98
2023-01-25T04:04:31.602Z,0.89
2023-01-25T04:09:38.828Z,0.81
2023-01-25T04:20:18.111Z,0.80
2023-01-25T04:25:25.609Z,0.83
2023-01-25T04:30:33.311Z,0.85
2023-01-25T04:35:41.092Z,0.76
2023-01-25T04:40:48.970Z,0.65
2023-01-25T04:45:56.657Z,0.61
2023-01-25T04:51:03.925Z,0.66
2023-01-25T04:56:10.412Z,0.71
2023-01-25T05:01:18.278Z,0.75
2023-01-25T05:06:25.800Z,0.76
2023-01-25T05:11:32.983Z,0.77
2023-01-25T05:16:39.130Z,0.78
2023-01-25T05:22:01.693Z,0.80
2023-01-25T05:27:09.933Z,0.79
2023-01-25T05:32:19.654Z,0.78
2023-01-25T05:37:26.944Z,0.77
2023-01-25T05:42:34.204Z,0.79
2023-01-25T05:47:39.720Z,0.80
2023-01-25T05:52:48.508Z,0.81
2023-01-25T05:57:58.355Z,0.81
2023-01-25T06:03:05.857Z,0.77
2023-01-25T06:08:14.041Z,0.76
2023-01-25T06:13:22.567Z,0.77
2023-01-25T06:18:31.408Z,0.79
2023-01-25T06:23:38.908Z,0.78
2023-01-25T06:28:47.455Z,0.77
2023-01-25T06:33:55.430Z,0.75
2023-01-25T06:39:03.465Z,0.72
2023-01-25T06:44:11.633Z,0.71
2023-01-25T06:59:00.327Z,0.59
2023-01-25T07:04:08.134Z,0.61
2023-01-25T07:09:16.640Z,0.66
2023-01-25T07:14:23.784Z,0.59
2023-01-25T07:19:29.548Z,0.51
2023-01-25T07:24:37.267Z,0.42
2023-01-25T07:29:44.877Z,0.32
2023-01-25T07:34:52.268Z,0.29
2023-01-25T07:39:59.375Z,0.29
2023-01-25T07:45:08.353Z,0.33
2023-01-25T07:50:16.674Z,0.33
2023-01-25T07:55:24.360Z,0.34
2023-01-25T08:00:31.984Z,0.30
2023-01-25T08:05:40.224Z,0.24
2023-01-25T08:10:48.451Z,0.25
2023-01-25T08:15:59.189Z,0.28
2023-01-25T08:21:07.693Z,0.35
2023-01-25T08:26:17.169Z,0.39
2023-01-25T08:31:26.182Z,0.42
2023-01-25T08:36:35.389Z,0.46
2023-01-25T08:41:43.093Z,0.48
2023-01-25T08:46:51.518Z,0.53
2023-01-25T08:51:59.680Z,0.60
2023-01-25T08:57:07.972Z,0.73
2023-01-25T09:02:15.875Z,0.84
2023-01-25T09:07:23.187Z,0.84
2023-01-25T09:12:28.711Z,0.89
2023-01-25T09:17:39.296Z,0.96
2023-01-25T09:22:47.013Z,1.02
2023-01-25T09:27:54.742Z,1.10
2023-01-25T09:33:05.022Z,1.15
2023-01-25T09:38:12.761Z,1.26
2023-01-25T09:43:32.939Z,1.35
2023-01-25T09:48:48.625Z,1.44
2023-01-25T09:53:58.746Z,1.51
2023-01-25T09:59:13.363Z,1.61
2023-01-25T10:04:24.157Z,1.70
2023-01-25T10:09:40.723Z,1.78
2023-01-25T10:14:49.259Z,1.83
2023-01-25T10:20:10.820Z,1.82
2023-01-25T10:25:33.480Z,1.80
2023-01-25T10:30:44.584Z,1.77
2023-01-25T10:35:53.417Z,1.80
2023-01-25T10:41:05.771Z,1.85
2023-01-25T10:46:23.217Z,1.87
2023-01-25T10:51:32.056Z,1.87
2023-01-25T10:56:43.729Z,1.87
2023-01-25T11:01:51.430Z,1.88
2023-01-25T11:06:59.316Z,1.90
2023-01-25T11:12:18.243Z,1.92
2023-01-25T11:17:32.411Z,1.93
2023-01-25T11:22:50.152Z,1.95
2023-01-25T11:28:16.118Z,1.99
2023-01-25T11:33:28.167Z,2.03
2023-01-25T11:38:36.018Z,2.05
2023-01-25T11:44:05.020Z,2.06
2023-01-25T11:49:27.809Z,2.09
2023-01-25T11:54:59.049Z,2.11
2023-01-25T12:00:24.592Z,2.10
2023-01-25T12:05:55.342Z,2.10
2023-01-25T12:11:09.805Z,2.07
2023-01-25T12:16:45.242Z,2.04
2023-01-25T12:22:16.424Z,1.97
2023-01-25T12:27:39.923Z,2.03
2023-01-25T12:32:55.461Z,2.07
2023-01-25T12:38:14.888Z,2.09
2023-01-25T12:43:28.753Z,2.08
2023-01-25T12:48:42.791Z,2.06
2023-01-25T12:53:52.170Z,2.05
2023-01-25T12:59:08.695Z,2.06
2023-01-25T13:04:27.458Z,2.05
2023-01-25T13:09:41.216Z,2.04
2023-01-25T13:14:48.799Z,2.01
2023-01-25T13:19:56.641Z,1.98
2023-01-25T13:25:22.993Z,1.95
2023-01-25T13:30:52.296Z,1.96
2023-01-25T13:36:20.579Z,1.98
2023-01-25T13:41:28.999Z,1.95
2023-01-25T13:46:36.509Z,1.91
2023-01-25T13:51:44.841Z,1.86
2023-01-25T13:57:06.417Z,1.80
2023-01-25T14:02:20.521Z,1.76
2023-01-25T14:07:37.168Z,1.72
2023-01-25T14:21:10.682Z,1.66
2023-01-25T14:26:26.692Z,1.60
2023-01-25T14:31:36.614Z,1.58
2023-01-25T14:36:44.088Z,1.55
2023-01-25T14:42:00.823Z,1.53
2023-01-25T14:47:29.858Z,1.54
2023-01-25T14:52:40.757Z,1.54
2023-01-25T14:57:49.410Z,1.51
2023-01-25T15:02:59.023Z,1.46
2023-01-25T15:08:29.460Z,1.40
2023-01-25T15:13:37.092Z,1.36
2023-01-25T15:18:53.095Z,1.31
2023-01-25T15:24:05.107Z,1.30
2023-01-25T15:29:16.430Z,1.30
2023-01-25T15:34:26.219Z,1.30
2023-01-25T15:39:35.276Z,1.27
2023-01-25T15:44:42.957Z,1.24
2023-01-25T15:49:50.185Z,1.22
2023-01-25T15:55:01.406Z,1.17
2023-01-25T16:00:21.528Z,1.14
2023-01-25T16:05:29.682Z,1.12
2023-01-25T16:10:37.217Z,1.11
2023-01-25T16:15:49.707Z,1.12
2023-01-25T16:20:57.557Z,1.10
2023-01-25T16:26:05.504Z,1.08
2023-01-25T16:31:30.847Z,1.04
2023-01-25T16:36:39.753Z,1.01
2023-01-25T16:41:47.684Z,0.97
2023-01-25T16:46:55.601Z,0.94
2023-01-25T16:52:03.706Z,0.95
2023-01-25T16:57:20.305Z,1.00
2023-01-25T17:02:28.452Z,1.03
2023-01-25T17:07:36.326Z,1.05
2023-01-25T17:12:45.634Z,1.04
2023-01-25T17:17:52.949Z,1.02
2023-01-25T17:23:00.337Z,0.99
2023-01-25T17:28:07.470Z,0.97
2023-01-25T17:33:17.513Z,0.98
2023-01-25T17:38:24.764Z,0.99
2023-01-25T17:43:34.367Z,1.00
2023-01-25T17:48:42.751Z,1.02
2023-01-25T17:53:50.049Z,1.01
2023-01-25T17:58:58.567Z,0.96
2023-01-25T18:04:09.804Z,0.92
2023-01-25T18:09:17.725Z,0.88
2023-01-25T18:14:24.997Z,0.84
2023-01-25T18:19:33.228Z,0.81
2023-01-25T18:24:41.034Z,0.81
2023-01-25T18:29:53.983Z,0.84
2023-01-25T18:35:01.304Z,0.82
2023-01-25T18:40:11.891Z,0.81
2023-01-25T18:45:19.376Z,0.79
2023-01-25T18:50:26.900Z,0.76
2023-01-25T18:55:34.377Z,0.73
2023-01-25T19:00:41.691Z,0.71
2023-01-25T19:05:54.649Z,0.62
2023-01-25T19:11:06.312Z,0.63
2023-01-25T19:16:15.832Z,0.65
2023-01-25T19:21:25.526Z,0.66
2023-01-25T19:26:33.054Z,0.65
2023-01-25T19:31:41.197Z,0.63
2023-01-25T19:36:50.275Z,0.60
2023-01-25T19:41:58.183Z,0.61
2023-01-25T19:47:06.020Z,0.63
2023-01-25T19:52:13.691Z,0.63
2023-01-25T19:57:20.934Z,0.56
2023-01-25T20:02:28.397Z,0.54
2023-01-25T20:07:35.869Z,0.50
2023-01-25T20:12:43.214Z,0.47
2023-01-25T20:17:50.673Z,0.42
2023-01-25T20:22:57.774Z,0.39
2023-01-25T20:28:03.413Z,0.32
2023-01-25T20:33:10.485Z,0.35
2023-01-25T20:38:18.543Z,0.34
2023-01-25T20:43:26.608Z,0.32
2023-01-25T20:48:36.667Z,0.31
2023-01-25T20:53:45.400Z,0.30
2023-01-25T20:58:54.175Z,0.30
2023-01-25T21:04:01.646Z,0.32
2023-01-25T21:09:08.904Z,0.35
2023-01-25T21:14:18.049Z,0.34
2023-01-25T21:19:28.237Z,0.30
2023-01-25T21:24:35.756Z,0.25
2023-01-25T21:29:44.059Z,0.22
2023-01-25T21:34:51.571Z,0.18
2023-01-25T21:39:58.875Z,0.20
2023-01-25T21:45:25.229Z,0.22
2023-01-25T21:50:50.342Z,0.21
2023-01-25T21:55:59.706Z,0.19
2023-01-25T22:01:10.365Z,0.17
2023-01-25T22:06:18.822Z,0.16
2023-01-25T22:11:26.434Z,0.13
2023-01-25T22:16:33.797Z,0.11
2023-01-25T22:21:41.301Z,0.12
2023-01-25T22:26:59.390Z,0.12
2023-01-25T22:32:07.110Z,0.07
2023-01-25T22:37:14.695Z,0.03
2023-01-25T22:42:22.003Z,-0.02
2023-01-25T22:47:30.168Z,-0.05
2023-01-25T22:52:38.038Z,-0.09
2023-01-25T22:57:45.690Z,-0.13
2023-01-25T23:02:53.327Z,-0.13
2023-01-25T23:08:00.712Z,-0.14
2023-01-25T23:13:08.376Z,-0.20
2023-01-25T23:18:33.232Z,-0.19
2023-01-25T23:23:41.079Z,-0.19
2023-01-25T23:28:53.705Z,-0.17
2023-01-25T23:34:05.096Z,-0.17
2023-01-25T23:39:14.798Z,-0.16
2023-01-25T23:44:22.902Z,-0.14
2023-01-25T23:49:30.632Z,-0.11
2023-01-25T23:54:38.649Z,-0.11
2023-01-25T23:59:45.926Z,-0.10
